createdAt,value
2019-01-16T00:00:10.646Z,2.91
2019-01-16T00:02:11.265Z,2.91
2019-01-16T00:04:14.100Z,2.90
2019-01-16T00:06:07.808Z,2.91
2019-01-16T00:08:04.843Z,2.96
2019-01-16T00:10:03.096Z,2.95
2019-01-16T00:11:57.559Z,2.96
2019-01-16T00:13:57.726Z,2.97
2019-01-16T00:16:04.269Z,2.93
2019-01-16T00:17:59.568Z,2.93
2019-01-16T00:20:02.474Z,2.91
2019-01-16T00:22:03.423Z,2.89
2019-01-16T00:23:56.243Z,2.91
2019-01-16T00:25:49.617Z,2.92
2019-01-16T00:27:43.662Z,2.90
2019-01-16T00:29:36.318Z,2.92
2019-01-16T00:31:43.094Z,2.90
2019-01-16T00:33:35.847Z,2.90
2019-01-16T00:35:36.228Z,2.87
2019-01-16T00:37:33.378Z,2.88
2019-01-16T00:39:26.698Z,2.89
2019-01-16T00:41:12.919Z,2.87
2019-01-16T00:43:19.687Z,2.86
2019-01-16T00:45:16.729Z,2.88
2019-01-16T00:47:09.258Z,2.84
2019-01-16T00:48:58.818Z,2.88
2019-01-16T00:50:55.232Z,2.87
2019-01-16T00:52:49.251Z,2.91
2019-01-16T00:54:46.898Z,2.84
2019-01-16T00:56:50.163Z,2.85
2019-01-16T00:58:56.392Z,2.86
2019-01-16T01:00:56.862Z,2.85
2019-01-16T01:02:52.979Z,2.86
2019-01-16T01:04:55.979Z,2.86
2019-01-16T01:07:05.679Z,2.82
2019-01-16T01:09:10.567Z,2.84
2019-01-16T01:11:08.761Z,2.86
2019-01-16T01:13:04.163Z,2.87
2019-01-16T01:14:57.441Z,2.86
2019-01-16T01:16:44.877Z,2.85
2019-01-16T01:18:41.048Z,2.83
2019-01-16T01:20:45.963Z,2.82
2019-01-16T01:22:43.375Z,2.83
2019-01-16T01:24:36.404Z,2.83
2019-01-16T01:26:39.604Z,2.82
2019-01-16T01:28:33.553Z,2.82
2019-01-16T01:30:28.210Z,2.81
2019-01-16T01:32:31.068Z,2.85
2019-01-16T01:34:22.445Z,2.83
2019-01-16T01:36:15.105Z,2.87
2019-01-16T01:38:07.809Z,2.90
2019-01-16T01:40:14.155Z,2.85
2019-01-16T01:42:11.134Z,2.90
2019-01-16T01:43:56.629Z,2.86
2019-01-16T01:46:09.509Z,2.86
2019-01-16T01:48:22.224Z,2.92
2019-01-16T01:50:15.608Z,2.94
2019-01-16T01:52:17.437Z,2.90
2019-01-16T01:54:03.116Z,2.91
2019-01-16T01:56:06.250Z,2.92
2019-01-16T01:58:20.396Z,2.93
2019-01-16T02:00:27.464Z,2.90
2019-01-16T02:02:15.366Z,2.90
2019-01-16T02:04:24.842Z,2.96
2019-01-16T02:06:25.365Z,2.91
2019-01-16T02:08:22.626Z,2.92
2019-01-16T02:10:13.842Z,2.92
2019-01-16T02:12:20.298Z,2.91
2019-01-16T02:14:16.998Z,2.93
2019-01-16T02:16:09.726Z,2.94
2019-01-16T02:17:54.564Z,2.95
2019-01-16T02:19:35.319Z,2.96
2019-01-16T02:21:21.163Z,2.97
2019-01-16T02:23:13.105Z,2.98
2019-01-16T02:25:19.140Z,2.99
2019-01-16T02:27:19.489Z,3.00
2019-01-16T02:29:13.489Z,2.99
2019-01-16T02:31:16.509Z,3.00
2019-01-16T02:33:22.352Z,3.00
2019-01-16T02:35:24.022Z,3.02
2019-01-16T02:37:23.865Z,3.04
2019-01-16T02:39:10.587Z,3.03
2019-01-16T02:41:14.026Z,3.04
2019-01-16T02:43:01.899Z,3.01
2019-01-16T02:44:54.566Z,3.04
2019-01-16T02:46:47.205Z,3.04
2019-01-16T02:48:37.932Z,3.03
2019-01-16T02:50:29.289Z,3.05
2019-01-16T02:52:22.003Z,3.05
2019-01-16T02:54:15.035Z,3.06
2019-01-16T02:56:10.732Z,3.05
2019-01-16T02:58:14.128Z,3.08
2019-01-16T02:59:57.987Z,3.12
2019-01-16T03:01:54.822Z,3.10
2019-01-16T03:03:43.383Z,3.11
2019-01-16T03:05:36.420Z,3.10
2019-01-16T03:07:30.598Z,3.10
2019-01-16T03:09:26.710Z,3.12
2019-01-16T03:11:23.827Z,3.11
2019-01-16T03:13:12.144Z,3.09
2019-01-16T03:15:07.586Z,3.12
2019-01-16T03:16:54.978Z,3.08
2019-01-16T03:19:04.527Z,3.08
2019-01-16T03:20:51.049Z,3.10
2019-01-16T03:22:49.125Z,3.07
2019-01-16T03:24:48.917Z,3.07
2019-01-16T03:26:30.832Z,3.08
2019-01-16T03:28:24.906Z,3.08
2019-01-16T03:30:17.998Z,3.05
2019-01-16T03:32:10.951Z,3.10
2019-01-16T03:34:08.134Z,3.08
2019-01-16T03:36:03.648Z,3.06
2019-01-16T03:37:58.198Z,3.05
2019-01-16T03:40:07.113Z,3.06
2019-01-16T03:42:18.729Z,3.09
2019-01-16T03:44:17.725Z,3.07
2019-01-16T03:46:28.308Z,3.06
2019-01-16T03:48:28.784Z,3.06
2019-01-16T03:50:23.792Z,3.05
2019-01-16T03:52:13.969Z,3.07
2019-01-16T03:54:06.307Z,3.07
2019-01-16T03:56:09.964Z,3.03
2019-01-16T03:58:02.274Z,3.06
2019-01-16T03:59:47.340Z,3.06
2019-01-16T04:01:40.343Z,3.02
2019-01-16T04:03:47.139Z,3.02
2019-01-16T04:05:38.864Z,3.06
2019-01-16T04:07:43.175Z,3.06
2019-01-16T04:09:39.208Z,3.03
2019-01-16T04:11:30.112Z,3.05
2019-01-16T04:13:27.407Z,3.02
2019-01-16T04:15:40.009Z,3.03
2019-01-16T04:17:46.104Z,3.03
2019-01-16T04:19:43.118Z,3.02
2019-01-16T04:21:46.013Z,3.00
2019-01-16T04:23:38.437Z,3.05
2019-01-16T04:25:31.320Z,3.04
2019-01-16T04:27:31.298Z,3.05
2019-01-16T04:29:26.402Z,3.00
2019-01-16T04:31:19.434Z,3.00
2019-01-16T04:33:13.543Z,2.98
2019-01-16T04:35:10.490Z,3.00
2019-01-16T04:37:07.417Z,2.99
2019-01-16T04:39:04.442Z,3.01
2019-01-16T04:40:49.892Z,3.02
2019-01-16T04:42:46.966Z,3.00
2019-01-16T04:44:39.390Z,3.00
2019-01-16T04:46:33.918Z,2.99
2019-01-16T04:48:27.858Z,2.99
2019-01-16T04:50:34.674Z,3.02
2019-01-16T04:52:23.250Z,2.98
2019-01-16T04:54:18.901Z,2.99
2019-01-16T04:56:13.931Z,2.95
2019-01-16T04:58:26.784Z,2.94
2019-01-16T05:00:39.125Z,2.95
2019-01-16T05:02:44.096Z,2.93
2019-01-16T05:04:27.498Z,2.92
2019-01-16T05:06:30.332Z,2.94
2019-01-16T05:08:36.255Z,2.93
2019-01-16T05:10:42.377Z,2.88
2019-01-16T05:12:41.729Z,2.90
2019-01-16T05:14:31.944Z,2.90
2019-01-16T05:16:21.743Z,2.86
2019-01-16T05:18:21.829Z,2.85
2019-01-16T05:20:16.643Z,2.86
2019-01-16T05:22:18.749Z,2.89
2019-01-16T05:24:11.743Z,2.86
2019-01-16T05:26:05.751Z,2.91
2019-01-16T05:28:00.013Z,2.80
2019-01-16T05:30:09.181Z,2.82
2019-01-16T05:31:51.697Z,2.82
2019-01-16T05:33:48.762Z,2.85
2019-01-16T05:35:41.618Z,2.86
2019-01-16T05:37:40.695Z,2.85
2019-01-16T05:39:33.416Z,2.84
2019-01-16T05:41:39.371Z,2.84
2019-01-16T05:43:40.004Z,2.80
2019-01-16T05:45:42.231Z,2.83
2019-01-16T05:47:31.412Z,2.81
2019-01-16T05:49:30.794Z,2.74
2019-01-16T05:51:23.212Z,2.74
2019-01-16T05:53:22.901Z,2.72
2019-01-16T05:55:15.596Z,2.73
2019-01-16T05:57:24.694Z,2.74
2019-01-16T05:59:33.856Z,2.76
2019-01-16T06:01:33.845Z,2.77
2019-01-16T06:03:40.335Z,2.77
2019-01-16T06:05:52.624Z,2.79
2019-01-16T06:07:42.259Z,2.72
2019-01-16T06:09:44.966Z,2.67
2019-01-16T06:11:56.800Z,2.72
2019-01-16T06:13:42.495Z,2.71
2019-01-16T06:15:42.296Z,2.74
2019-01-16T06:17:45.989Z,2.72
2019-01-16T06:19:34.439Z,2.68
2019-01-16T06:21:24.950Z,2.69
2019-01-16T06:23:19.443Z,2.68
2019-01-16T06:25:17.772Z,2.67
2019-01-16T06:27:14.911Z,2.69
2019-01-16T06:29:24.740Z,2.62
2019-01-16T06:31:18.776Z,2.72
2019-01-16T06:33:12.973Z,2.66
2019-01-16T06:35:05.904Z,2.65
2019-01-16T06:37:09.856Z,2.64
2019-01-16T06:39:13.217Z,2.73
2019-01-16T06:41:06.315Z,2.65
2019-01-16T06:42:53.576Z,2.67
2019-01-16T06:44:50.842Z,2.67
2019-01-16T06:46:48.720Z,2.62
2019-01-16T06:48:41.455Z,2.64
2019-01-16T06:50:35.443Z,2.60
2019-01-16T06:52:25.199Z,2.61
2019-01-16T06:54:25.406Z,2.58
2019-01-16T06:56:19.564Z,2.61
2019-01-16T06:58:14.717Z,2.56
2019-01-16T07:00:15.212Z,2.51
2019-01-16T07:02:07.880Z,2.52
2019-01-16T07:04:02.142Z,2.51
2019-01-16T07:05:59.130Z,2.53
2019-01-16T07:07:45.799Z,2.50
2019-01-16T07:09:43.165Z,2.47
2019-01-16T07:11:30.597Z,2.49
2019-01-16T07:13:27.383Z,2.48
2019-01-16T07:15:33.589Z,2.46
2019-01-16T07:17:23.631Z,2.46
2019-01-16T07:19:21.233Z,2.42
2019-01-16T07:21:15.051Z,2.44
2019-01-16T07:23:12.106Z,2.50
2019-01-16T07:25:00.983Z,2.51
2019-01-16T07:26:47.271Z,2.46
2019-01-16T07:28:41.183Z,2.47
2019-01-16T07:30:44.220Z,2.44
2019-01-16T07:32:44.249Z,2.39
2019-01-16T07:34:27.878Z,2.38
2019-01-16T07:36:23.610Z,2.39
2019-01-16T07:38:16.332Z,2.39
2019-01-16T07:40:22.061Z,2.36
2019-01-16T07:42:17.511Z,2.39
2019-01-16T07:44:11.530Z,2.39
2019-01-16T07:46:04.524Z,2.38
2019-01-16T07:47:57.572Z,2.34
2019-01-16T07:49:53.466Z,2.28
2019-01-16T07:51:39.576Z,2.32
2019-01-16T07:53:50.474Z,2.33
2019-01-16T07:55:43.215Z,2.34
2019-01-16T07:57:45.326Z,2.30
2019-01-16T07:59:43.707Z,2.29
2019-01-16T08:01:32.666Z,2.33
2019-01-16T08:03:44.996Z,2.31
2019-01-16T08:05:48.138Z,2.32
2019-01-16T08:07:56.041Z,2.28
2019-01-16T08:09:52.869Z,2.28
2019-01-16T08:12:08.180Z,2.31
2019-01-16T08:14:21.565Z,2.34
2019-01-16T08:16:28.762Z,2.33
2019-01-16T08:18:39.049Z,2.37
2019-01-16T08:20:36.051Z,2.33
2019-01-16T08:22:33.150Z,2.32
2019-01-16T08:24:47.179Z,2.32
2019-01-16T08:26:50.705Z,2.34
2019-01-16T08:28:56.793Z,2.37
2019-01-16T08:30:53.174Z,2.29
2019-01-16T08:32:42.060Z,2.29
2019-01-16T08:34:39.832Z,2.29
2019-01-16T08:36:50.218Z,2.25
2019-01-16T08:38:42.901Z,2.26
2019-01-16T08:40:41.930Z,2.27
2019-01-16T08:42:58.420Z,2.31
2019-01-16T08:45:05.173Z,2.24
2019-01-16T08:46:59.687Z,2.24
2019-01-16T08:48:56.663Z,2.16
2019-01-16T08:50:49.393Z,2.16
2019-01-16T08:52:46.185Z,2.21
2019-01-16T08:54:48.007Z,2.10
2019-01-16T08:56:40.732Z,2.07
2019-01-16T08:58:37.518Z,2.11
2019-01-16T09:00:38.463Z,2.11
2019-01-16T09:02:34.738Z,2.09
2019-01-16T09:04:28.044Z,2.12
2019-01-16T09:06:30.781Z,2.13
2019-01-16T09:08:55.506Z,2.11
2019-01-16T09:10:53.616Z,2.04
2019-01-16T09:12:49.864Z,2.11
2019-01-16T09:14:57.851Z,2.16
2019-01-16T09:16:53.178Z,2.11
2019-01-16T09:18:42.284Z,2.05
2019-01-16T09:20:43.724Z,2.08
2019-01-16T09:22:41.390Z,2.13
2019-01-16T09:24:47.717Z,2.04
2019-01-16T09:27:02.125Z,2.07
2019-01-16T09:29:11.029Z,2.04
2019-01-16T09:31:08.268Z,2.09
2019-01-16T09:33:11.836Z,2.09
2019-01-16T09:34:59.831Z,2.08
2019-01-16T09:36:55.744Z,2.11
2019-01-16T09:38:50.853Z,2.10
2019-01-16T09:40:36.665Z,2.11
2019-01-16T09:42:29.718Z,2.16
2019-01-16T09:44:22.621Z,2.18
2019-01-16T09:46:22.842Z,2.12
2019-01-16T09:48:19.211Z,2.11
2019-01-16T09:50:12.520Z,2.14
2019-01-16T09:52:24.547Z,2.13
2019-01-16T09:54:21.658Z,2.09
2019-01-16T09:56:16.248Z,2.14
2019-01-16T09:58:10.456Z,2.17
2019-01-16T10:00:15.260Z,2.19
2019-01-16T10:02:18.665Z,2.10
2019-01-16T10:04:16.310Z,2.20
2019-01-16T10:06:16.633Z,2.22
2019-01-16T10:08:14.395Z,2.18
2019-01-16T10:10:08.736Z,2.10
2019-01-16T10:12:05.888Z,2.22
2019-01-16T10:14:11.319Z,2.13
2019-01-16T10:16:15.003Z,2.07
2019-01-16T10:18:21.913Z,2.12
2019-01-16T10:20:19.388Z,2.16
2019-01-16T10:22:13.694Z,2.27
2019-01-16T10:24:21.189Z,2.25
2019-01-16T10:26:19.800Z,2.28
2019-01-16T10:28:20.040Z,2.18
2019-01-16T10:30:13.409Z,2.20
2019-01-16T10:32:10.554Z,2.21
2019-01-16T10:34:11.865Z,2.23
2019-01-16T10:36:04.704Z,2.18
2019-01-16T10:37:57.715Z,2.21
2019-01-16T10:39:52.964Z,2.22
2019-01-16T10:41:55.076Z,2.17
2019-01-16T10:43:55.555Z,2.22
2019-01-16T10:45:53.372Z,2.12
2019-01-16T10:47:59.903Z,2.16
2019-01-16T10:49:52.962Z,2.21
2019-01-16T10:52:00.420Z,2.20
2019-01-16T10:53:54.719Z,2.17
2019-01-16T10:55:56.095Z,2.23
2019-01-16T10:57:50.823Z,2.16
2019-01-16T10:59:49.761Z,2.22
2019-01-16T11:01:48.034Z,2.28
2019-01-16T11:03:41.249Z,2.30
2019-01-16T11:05:37.396Z,2.39
2019-01-16T11:07:41.090Z,2.33
2019-01-16T11:09:38.665Z,2.23
2019-01-16T11:11:58.595Z,2.07
2019-01-16T11:13:58.611Z,2.11
2019-01-16T11:15:52.820Z,2.22
2019-01-16T11:17:51.715Z,2.14
2019-01-16T11:19:51.694Z,2.14
2019-01-16T11:22:02.692Z,2.07
2019-01-16T11:24:12.461Z,2.11
2019-01-16T11:26:09.276Z,2.20
2019-01-16T11:28:20.123Z,2.17
2019-01-16T11:30:15.434Z,2.21
2019-01-16T11:32:16.317Z,2.14
2019-01-16T11:34:08.892Z,2.16
2019-01-16T11:36:24.230Z,2.28
2019-01-16T11:38:24.750Z,2.20
2019-01-16T11:40:31.662Z,2.20
2019-01-16T11:42:24.102Z,2.10
2019-01-16T11:44:22.979Z,1.98
2019-01-16T11:46:31.397Z,2.06
2019-01-16T11:48:20.395Z,2.11
2019-01-16T11:50:14.407Z,2.15
2019-01-16T11:52:10.975Z,2.09
2019-01-16T11:54:04.050Z,2.11
2019-01-16T11:56:04.360Z,2.03
2019-01-16T11:58:10.511Z,2.03
2019-01-16T11:59:54.281Z,2.04
2019-01-16T12:01:44.256Z,2.01
2019-01-16T12:03:46.643Z,2.00
2019-01-16T12:05:38.937Z,1.97
2019-01-16T12:07:46.584Z,1.98
2019-01-16T12:09:57.363Z,2.02
2019-01-16T12:11:55.325Z,2.00
2019-01-16T12:14:08.294Z,2.04
2019-01-16T12:16:15.478Z,2.08
2019-01-16T12:18:21.992Z,2.08
2019-01-16T12:20:19.248Z,2.05
2019-01-16T12:22:14.028Z,2.07
2019-01-16T12:24:09.139Z,2.08
2019-01-16T12:26:19.323Z,2.09
2019-01-16T12:28:20.704Z,2.12
2019-01-16T12:30:16.665Z,2.07
2019-01-16T12:32:20.384Z,2.04
2019-01-16T12:34:08.351Z,2.14
2019-01-16T12:36:00.888Z,2.26
2019-01-16T12:38:08.786Z,2.27
2019-01-16T12:39:53.566Z,2.29
2019-01-16T12:41:59.721Z,2.27
2019-01-16T12:43:52.515Z,2.23
2019-01-16T12:45:39.011Z,2.22
2019-01-16T12:47:32.037Z,2.24
2019-01-16T12:49:42.147Z,2.32
2019-01-16T12:51:57.941Z,2.35
2019-01-16T12:53:55.223Z,2.36
2019-01-16T12:55:49.109Z,2.35
2019-01-16T12:57:43.335Z,2.24
2019-01-16T12:59:58.573Z,2.24
2019-01-16T13:01:51.840Z,2.24
2019-01-16T13:03:50.038Z,2.28
2019-01-16T13:05:43.998Z,2.15
2019-01-16T13:07:37.131Z,2.13
2019-01-16T13:09:32.631Z,2.15
2019-01-16T13:11:38.454Z,2.04
2019-01-16T13:13:49.651Z,2.03
2019-01-16T13:15:58.876Z,2.04
2019-01-16T13:17:52.836Z,2.06
2019-01-16T13:20:05.157Z,2.05
2019-01-16T13:22:03.128Z,2.03
2019-01-16T13:23:59.451Z,2.10
2019-01-16T13:25:59.477Z,2.13
2019-01-16T13:28:02.214Z,2.09
2019-01-16T13:29:59.307Z,2.04
2019-01-16T13:31:54.863Z,2.11
2019-01-16T13:33:52.853Z,2.13
2019-01-16T13:35:51.818Z,2.11
2019-01-16T13:38:05.192Z,2.21
2019-01-16T13:40:01.350Z,2.28
2019-01-16T13:41:58.103Z,2.20
2019-01-16T13:43:58.496Z,2.24
2019-01-16T13:45:50.929Z,2.22
2019-01-16T13:47:44.290Z,2.24
2019-01-16T13:49:30.402Z,2.28
2019-01-16T13:51:25.638Z,2.20
2019-01-16T13:53:18.208Z,2.31
2019-01-16T13:55:28.050Z,2.27
2019-01-16T13:57:37.309Z,2.31
2019-01-16T13:59:35.093Z,2.33
2019-01-16T14:01:29.894Z,2.27
2019-01-16T14:03:14.058Z,2.37
2019-01-16T14:05:01.443Z,2.34
2019-01-16T14:07:06.866Z,2.28
2019-01-16T14:09:01.005Z,2.27
2019-01-16T14:11:05.087Z,2.27
2019-01-16T14:12:51.099Z,2.26
2019-01-16T14:15:21.724Z,2.28
2019-01-16T14:17:19.730Z,2.26
2019-01-16T14:19:13.413Z,2.28
2019-01-16T14:21:09.403Z,2.26
2019-01-16T14:23:06.440Z,2.26
2019-01-16T14:24:58.375Z,2.28
2019-01-16T14:27:06.448Z,2.31
2019-01-16T14:28:59.301Z,2.35
2019-01-16T14:30:56.585Z,2.34
2019-01-16T14:33:01.128Z,2.34
2019-01-16T14:35:07.684Z,2.29
2019-01-16T14:37:09.866Z,2.33
2019-01-16T14:39:12.590Z,2.37
2019-01-16T14:41:14.305Z,2.36
2019-01-16T14:43:10.379Z,2.30
2019-01-16T14:45:04.559Z,2.29
2019-01-16T14:46:58.262Z,2.26
2019-01-16T14:49:05.026Z,2.24
2019-01-16T14:51:14.945Z,2.27
2019-01-16T14:53:13.289Z,2.19
2019-01-16T14:55:24.213Z,2.14
2019-01-16T14:57:25.327Z,2.08
2019-01-16T14:59:21.442Z,2.11
2019-01-16T15:01:23.202Z,2.10
2019-01-16T15:03:15.859Z,2.09
2019-01-16T15:05:10.206Z,2.05
2019-01-16T15:07:01.404Z,2.07
2019-01-16T15:08:55.683Z,2.05
2019-01-16T15:10:59.593Z,2.03
2019-01-16T15:13:03.332Z,2.08
2019-01-16T15:15:13.845Z,2.08
2019-01-16T15:17:13.301Z,2.08
2019-01-16T15:19:22.302Z,2.03
2019-01-16T15:21:26.421Z,2.06
2019-01-16T15:23:17.865Z,2.05
2019-01-16T15:25:07.392Z,1.97
2019-01-16T15:27:19.506Z,1.94
2019-01-16T15:29:22.388Z,2.01
2019-01-16T15:31:15.647Z,1.94
2019-01-16T15:33:11.571Z,1.90
2019-01-16T15:34:54.509Z,1.89
2019-01-16T15:36:54.306Z,1.86
2019-01-16T15:39:09.683Z,1.88
2019-01-16T15:41:05.809Z,1.88
2019-01-16T15:43:03.451Z,1.81
2019-01-16T15:45:18.250Z,1.75
2019-01-16T15:47:12.522Z,1.70
2019-01-16T15:49:14.578Z,1.66
2019-01-16T15:51:07.086Z,1.59
2019-01-16T15:53:14.282Z,1.53
2019-01-16T15:55:11.555Z,1.50
2019-01-16T15:57:07.694Z,1.44
2019-01-16T15:59:00.113Z,1.39
2019-01-16T16:00:58.292Z,1.36
2019-01-16T16:02:56.270Z,1.28
2019-01-16T16:04:49.376Z,1.20
2019-01-16T16:06:58.441Z,1.20
2019-01-16T16:08:55.025Z,1.14
2019-01-16T16:10:49.379Z,1.14
2019-01-16T16:12:50.318Z,1.08
2019-01-16T16:14:47.108Z,1.04
2019-01-16T16:16:40.507Z,1.08
2019-01-16T16:18:37.383Z,1.04
2019-01-16T16:20:33.912Z,1.02
2019-01-16T16:22:39.408Z,1.04
2019-01-16T16:24:40.698Z,1.08
2019-01-16T16:26:34.607Z,1.03
2019-01-16T16:28:58.294Z,1.08
2019-01-16T16:30:54.489Z,1.07
2019-01-16T16:33:09.177Z,0.96
2019-01-16T16:35:07.002Z,0.94
2019-01-16T16:37:15.005Z,0.93
2019-01-16T16:39:30.766Z,0.99
2019-01-16T16:41:27.085Z,0.96
2019-01-16T16:43:31.657Z,0.91
2019-01-16T16:45:44.186Z,0.93
2019-01-16T16:47:44.234Z,0.92
2019-01-16T16:49:53.223Z,0.90
2019-01-16T16:51:52.222Z,0.83
2019-01-16T16:53:49.097Z,0.84
2019-01-16T16:55:42.973Z,0.85
2019-01-16T16:57:57.291Z,0.87
2019-01-16T16:59:50.789Z,0.88
2019-01-16T17:01:50.768Z,0.86
2019-01-16T17:03:53.167Z,0.84
2019-01-16T17:06:00.348Z,0.87
2019-01-16T17:08:02.783Z,0.86
2019-01-16T17:10:00.099Z,0.81
2019-01-16T17:12:01.406Z,0.86
2019-01-16T17:14:06.681Z,0.86
2019-01-16T17:16:18.875Z,0.83
2019-01-16T17:18:07.855Z,0.85
2019-01-16T17:20:19.252Z,0.86
2019-01-16T17:22:22.721Z,0.84
2019-01-16T17:24:18.335Z,0.85
2019-01-16T17:26:29.269Z,0.87
2019-01-16T17:28:31.010Z,0.87
2019-01-16T17:30:29.559Z,0.88
2019-01-16T17:32:25.617Z,0.86
2019-01-16T17:34:42.444Z,0.82
2019-01-16T17:36:47.066Z,0.80
2019-01-16T17:38:40.914Z,0.86
2019-01-16T17:40:34.808Z,0.84
2019-01-16T17:42:40.089Z,0.84
2019-01-16T17:44:31.538Z,0.87
2019-01-16T17:46:45.051Z,0.94
2019-01-16T17:48:55.470Z,0.98
2019-01-16T17:51:05.627Z,1.05
2019-01-16T17:53:07.172Z,1.07
2019-01-16T17:55:12.702Z,1.16
2019-01-16T17:57:12.082Z,1.19
2019-01-16T17:59:12.220Z,1.20
2019-01-16T18:01:05.366Z,1.25
2019-01-16T18:03:13.504Z,1.29
2019-01-16T18:05:21.563Z,1.33
2019-01-16T18:07:35.783Z,1.36
2019-01-16T18:09:49.118Z,1.35
2019-01-16T18:11:43.247Z,1.40
2019-01-16T18:13:43.213Z,1.44
2019-01-16T18:15:38.119Z,1.42
2019-01-16T18:17:46.857Z,1.42
2019-01-16T18:19:55.383Z,1.40
2019-01-16T18:21:57.711Z,1.41
2019-01-16T18:23:54.892Z,1.41
2019-01-16T18:25:58.798Z,1.42
2019-01-16T18:27:59.415Z,1.42
2019-01-16T18:30:19.255Z,1.44
2019-01-16T18:32:23.458Z,1.51
2019-01-16T18:34:32.273Z,1.47
2019-01-16T18:36:42.841Z,1.46
2019-01-16T18:38:40.853Z,1.48
2019-01-16T18:40:36.884Z,1.39
2019-01-16T18:42:41.205Z,1.37
2019-01-16T18:44:41.695Z,1.34
2019-01-16T18:46:39.954Z,1.27
2019-01-16T18:48:49.033Z,1.20
2019-01-16T18:50:52.164Z,1.18
2019-01-16T18:53:10.988Z,1.13
2019-01-16T18:55:03.520Z,1.06
2019-01-16T18:57:11.870Z,1.05
2019-01-16T18:59:15.506Z,1.02
2019-01-16T19:01:13.297Z,0.95
2019-01-16T19:03:37.346Z,0.94
2019-01-16T19:05:33.954Z,0.91
2019-01-16T19:07:32.222Z,0.88
2019-01-16T19:09:33.306Z,0.84
2019-01-16T19:11:31.024Z,0.84
2019-01-16T19:13:55.023Z,0.82
2019-01-16T19:16:09.407Z,0.81
2019-01-16T19:18:04.368Z,0.74
2019-01-16T19:20:07.406Z,0.74
2019-01-16T19:22:14.077Z,0.67
2019-01-16T19:24:08.334Z,0.63
2019-01-16T19:26:14.905Z,0.62
2019-01-16T19:28:02.638Z,0.59
2019-01-16T19:29:59.723Z,0.59
2019-01-16T19:32:04.202Z,0.58
2019-01-16T19:34:03.473Z,0.59
2019-01-16T19:35:54.917Z,0.56
2019-01-16T19:37:49.398Z,0.51
2019-01-16T19:39:42.223Z,0.50
2019-01-16T19:41:42.351Z,0.47
2019-01-16T19:43:46.221Z,0.45
2019-01-16T19:45:50.222Z,0.48
2019-01-16T19:48:20.237Z,0.52
2019-01-16T19:50:15.870Z,0.55
2019-01-16T19:52:14.275Z,0.58
2019-01-16T19:54:19.418Z,0.59
2019-01-16T19:56:40.924Z,0.62
2019-01-16T19:58:51.753Z,0.64
2019-01-16T20:00:54.172Z,0.68
2019-01-16T20:03:02.058Z,0.73
2019-01-16T20:05:12.377Z,0.75
2019-01-16T20:07:13.535Z,0.80
2019-01-16T20:09:21.304Z,0.82
2019-01-16T20:11:22.780Z,0.80
2019-01-16T20:13:19.703Z,0.89
2019-01-16T20:15:30.214Z,0.90
2019-01-16T20:17:34.828Z,0.95
2019-01-16T20:19:40.808Z,0.97
2019-01-16T20:21:46.081Z,0.95
2019-01-16T20:23:58.554Z,1.00
2019-01-16T20:25:48.759Z,1.01
2019-01-16T20:27:55.838Z,1.00
2019-01-16T20:29:49.325Z,1.04
2019-01-16T20:31:47.003Z,1.05
2019-01-16T20:33:44.785Z,1.07
2019-01-16T20:35:37.333Z,1.07
2019-01-16T20:37:34.054Z,1.11
2019-01-16T20:39:32.726Z,1.12
2019-01-16T20:41:48.077Z,1.16
2019-01-16T20:43:48.711Z,1.13
2019-01-16T20:45:52.674Z,1.11
2019-01-16T20:48:03.476Z,1.13
2019-01-16T20:50:02.528Z,1.15
2019-01-16T20:52:02.266Z,1.16
2019-01-16T20:54:01.076Z,1.18
2019-01-16T20:55:57.286Z,1.20
2019-01-16T20:58:01.280Z,1.21
2019-01-16T21:00:23.472Z,1.22
2019-01-16T21:02:24.588Z,1.29
2019-01-16T21:04:52.782Z,1.29
2019-01-16T21:06:47.865Z,1.28
2019-01-16T21:08:49.732Z,1.28
2019-01-16T21:11:03.968Z,1.31
2019-01-16T21:12:58.109Z,1.31
2019-01-16T21:15:03.663Z,1.32
2019-01-16T21:16:58.143Z,1.35
2019-01-16T21:18:54.506Z,1.36
2019-01-16T21:20:46.307Z,1.36
2019-01-16T21:22:49.594Z,1.40
2019-01-16T21:24:51.178Z,1.38
2019-01-16T21:26:46.467Z,1.40
2019-01-16T21:28:48.216Z,1.42
2019-01-16T21:30:41.857Z,1.42
2019-01-16T21:32:42.419Z,1.46
2019-01-16T21:34:46.879Z,1.43
2019-01-16T21:36:33.822Z,1.40
2019-01-16T21:38:30.728Z,1.44
2019-01-16T21:40:44.291Z,1.49
2019-01-16T21:42:37.965Z,1.47
2019-01-16T21:44:37.893Z,1.45
2019-01-16T21:46:41.381Z,1.48
2019-01-16T21:48:37.217Z,1.46
2019-01-16T21:50:37.765Z,1.48
2019-01-16T21:52:44.567Z,1.51
2019-01-16T21:54:31.734Z,1.48
2019-01-16T21:56:31.209Z,1.50
2019-01-16T21:58:39.025Z,1.51
2019-01-16T22:00:56.403Z,1.48
2019-01-16T22:03:13.550Z,1.52
2019-01-16T22:05:19.393Z,1.47
2019-01-16T22:07:36.777Z,1.51
2019-01-16T22:09:35.568Z,1.47
2019-01-16T22:11:31.508Z,1.53
2019-01-16T22:13:28.620Z,1.54
2019-01-16T22:15:42.676Z,1.56
2019-01-16T22:17:37.333Z,1.47
2019-01-16T22:19:48.034Z,1.47
2019-01-16T22:22:00.838Z,1.50
2019-01-16T22:24:00.708Z,1.47
2019-01-16T22:25:56.782Z,1.49
2019-01-16T22:30:34.684Z,1.52
2019-01-16T22:32:34.726Z,1.49
2019-01-16T22:34:31.579Z,1.46
2019-01-16T22:36:23.755Z,1.46
2019-01-16T22:38:15.536Z,1.47
2019-01-16T22:40:17.839Z,1.47
2019-01-16T22:42:13.151Z,1.46
2019-01-16T22:44:03.087Z,1.44
2019-01-16T22:46:10.601Z,1.39
2019-01-16T22:48:08.219Z,1.38
2019-01-16T22:50:09.874Z,1.37
2019-01-16T22:52:23.912Z,1.38
2019-01-16T22:54:22.918Z,1.38
2019-01-16T22:56:23.666Z,1.38
2019-01-16T22:58:31.006Z,1.36
2019-01-16T23:00:35.888Z,1.33
2019-01-16T23:02:38.339Z,1.32
2019-01-16T23:04:29.420Z,1.31
2019-01-16T23:06:27.666Z,1.35
2019-01-16T23:08:16.498Z,1.33
2019-01-16T23:10:06.368Z,1.32
2019-01-16T23:12:16.300Z,1.36
2019-01-16T23:14:08.819Z,1.36
2019-01-16T23:16:14.155Z,1.35
2019-01-16T23:18:14.448Z,1.33
2019-01-16T23:20:08.900Z,1.34
2019-01-16T23:22:12.754Z,1.33
2019-01-16T23:24:12.832Z,1.37
2019-01-16T23:26:19.032Z,1.35
2019-01-16T23:28:28.416Z,1.40
2019-01-16T23:30:46.010Z,1.47
2019-01-16T23:32:55.083Z,1.47
2019-01-16T23:35:07.854Z,1.42
2019-01-16T23:37:19.004Z,1.42
2019-01-16T23:39:18.779Z,1.43
2019-01-16T23:41:18.871Z,1.46
2019-01-16T23:43:22.864Z,1.46
2019-01-16T23:45:26.338Z,1.46
2019-01-16T23:47:20.612Z,1.44
2019-01-16T23:49:16.500Z,1.48
2019-01-16T23:51:17.137Z,1.47
2019-01-16T23:53:14.583Z,1.47
2019-01-16T23:55:07.002Z,1.44
2019-01-16T23:57:08.457Z,1.49
2019-01-16T23:58:53.734Z,1.43
